• Join FlightAware (Why Join?)
  • Login
  • US Flag 
10:38AM EDT


 

Airport Tracker/Info


-or-


 

Live Flight TrackerFlight Track Log ✈ N860BA ✈ 11-Oct-2013 ✈ KVNY - KORD

Flight Track Log - Related Links

Times and Time Zones

All times are in EDT time to prevent confusion due to time zone crossing. See the N860BA flight status page for this flight to view local times or setup timezone preferences in your user account.

Time Position Orientation Groundspeed Altitude Reporting Facility
EDT Latitude Longitude Course Direction KTS MPH feet Rate Location/Type
01:17AM 34.1667 -118.4833 68° East 182 209 1,700  Level Southern California TRACON
01:19AM 34.1917 -118.4097 68° East 227 261 7,300 2,760 Climbing Los Angeles Center
01:20AM 34.2517 -118.4447 334° Northwest 239 275 9,900 2,640 Climbing Los Angeles Center
01:21AM 34.3214 -118.4308 North 257 296 12,700 2,040 Climbing Los Angeles Center
01:22AM 34.3894 -118.3844 29° Northeast 281 323 14,100 1,620 Climbing Los Angeles Center
01:23AM 34.4717 -118.3247 31° Northeast 344 396 16,000 1,860 Climbing Los Angeles Center
01:24AM 34.5106 -118.2075 68° East 359 413 17,900 1,860 Climbing Los Angeles Center
01:25AM 34.5458 -118.0808 71° East 374 430 19,800 1,500 Climbing Los Angeles Center
01:26AM 34.5811 -117.9558 71° East 391 450 21,000 540 Climbing Los Angeles Center
01:27AM 34.6203 -117.8156 71° East 440 506 21,000 120 Level Los Angeles Center
01:28AM 34.6617 -117.6686 71° East 462 532 21,300 480 Climbing Los Angeles Center
01:29AM 34.6947 -117.5486 71° East 470 541 22,000 780 Climbing Los Angeles Center
01:30AM 34.7461 -117.3653 71° East 482 555 23,000 900 Climbing Los Angeles Center
01:31AM 34.7886 -117.2100 72° East 489 563 23,900 840 Climbing Los Angeles Center
01:32AM 34.8319 -117.0542 71° East 492 566 24,700 900 Climbing Los Angeles Center
01:33AM 34.9194 -116.8897 57° Northeast 488 562 25,800 900 Climbing Los Angeles Center
01:34AM 35.0067 -116.7636 50° Northeast 489 563 26,600 780 Climbing Los Angeles Center
01:35AM 35.0950 -116.6344 50° Northeast 496 571 27,400 840 Climbing Los Angeles Center
01:36AM 35.1822 -116.5061 50° Northeast 494 568 28,300 780 Climbing Los Angeles Center
01:37AM 35.2706 -116.3783 50° Northeast 493 567 29,100 780 Climbing Los Angeles Center
01:38AM 35.3536 -116.2492 52° Northeast 490 564 30,000 840 Climbing Los Angeles Center
01:39AM 35.4419 -116.1219 50° Northeast 490 564 30,800 840 Climbing Los Angeles Center
01:40AM 35.5258 -115.9939 51° Northeast 485 558 31,700 840 Climbing Los Angeles Center
01:41AM 35.6197 -115.8578 50° Northeast 480 552 32,600 600 Climbing Los Angeles Center
01:42AM 35.7019 -115.7308 51° Northeast 478 550 33,000 180 Climbing Los Angeles Center
01:43AM 35.7881 -115.6064 50° Northeast 478 550 33,000  Level Los Angeles Center
01:44AM 35.8722 -115.4781 51° Northeast 482 555 33,000  Level Los Angeles Center
01:45AM 35.9558 -115.3492 51° Northeast 485 558 33,000  Level Los Angeles Center
01:46AM 36.0408 -115.2197 51° Northeast 489 563 33,000  Level Los Angeles Center
01:47AM 36.1067 -115.0742 61° Northeast 499 574 33,000  Level Los Angeles Center
01:48AM 36.1581 -114.9197 68° East 494 568 33,000  Level Los Angeles Center
01:49AM 36.1989 -114.7931 68° East 496 571 33,000  Level Los Angeles Center
01:50AM 36.2697 -114.5711 68° East 497 572 33,000  Level Los Angeles Center
01:51AM 36.3206 -114.4117 68° East 498 573 33,000  Level Los Angeles Center
01:52AM 36.3728 -114.2508 68° East 501 577 33,000  Level Los Angeles Center
01:53AM 36.4225 -114.0914 69° East 499 574 33,000  Level Los Angeles Center
01:54AM 36.4736 -113.9311 68° East 500 575 33,000  Level Los Angeles Center
01:56AM 36.5247 -113.7669 69° East 502 578 33,000  Level Los Angeles Center
01:57AM 36.5853 -113.5744 69° East 501 577 33,000  Level Los Angeles Center
01:58AM 36.6358 -113.4153 68° East 500 575 33,000  Level Los Angeles Center
01:59AM 36.6858 -113.2536 69° East 500 575 33,000  Level Los Angeles Center
02:00AM 36.7350 -113.0917 69° East 501 577 33,000  Level Los Angeles Center
02:01AM 36.7847 -112.9294 69° East 503 579 33,000  Level Los Angeles Center
02:02AM 36.8331 -112.7656 70° East 505 581 33,000  Level Los Angeles Center
02:03AM 36.8828 -112.6050 69° East 502 578 33,000  Level Los Angeles Center
02:04AM 36.9408 -112.4100 70° East 502 578 33,000  Level Los Angeles Center
02:05AM 36.9892 -112.2478 70° East 502 578 33,000  Level Los Angeles Center
02:06AM 37.0378 -112.0858 69° East 501 577 33,000  Level Los Angeles Center
02:07AM 37.0850 -111.9228 70° East 502 578 33,000  Level Los Angeles Center
02:08AM 37.1328 -111.7597 70° East 502 578 33,000  Level Los Angeles Center
02:09AM 37.1808 -111.5961 70° East 502 578 33,000  Level Los Angeles Center
02:10AM 37.2289 -111.4317 70° East 503 579 33,000  Level Los Angeles Center
02:11AM 37.2764 -111.2658 70° East 505 581 33,000  Level Los Angeles Center
02:12AM 37.3442 -111.0367 70° East 507 583 33,000  Level Denver Center
02:13AM 37.4222 -110.8931 56° Northeast 500 575 33,000  Level Denver Center
02:14AM 37.5044 -110.7531 53° Northeast 499 574 33,000  Level Denver Center
02:15AM 37.5528 -110.5875 70° East 512 589 33,000  Level Denver Center
02:16AM 37.6006 -110.4058 72° East 508 585 33,000  Level Denver Center
02:17AM 37.6442 -110.2422 71° East 512 589 33,000  Level Denver Center
02:18AM 37.6889 -110.0794 71° East 513 590 33,000  Level Denver Center
02:19AM 37.7317 -109.9169 72° East 510 587 33,000  Level Denver Center
02:20AM 37.7828 -109.7275 71° East 509 586 33,000  Level Denver Center
02:22AM 37.8233 -109.5018 77° East  Level FlightAware Approximate
02:23AM 37.9192 -109.2083 77° East 512 589 33,000  Level Denver Center
02:24AM 37.9617 -109.0433 72° East 513 590 33,000  Level Denver Center
02:25AM 38.0042 -108.8781 72° East 515 593 33,000  Level Denver Center
02:26AM 38.0469 -108.7128 72° East 515 593 33,000  Level Denver Center
02:27AM 38.0961 -108.5139 73° East 518 596 33,000  Level Denver Center
02:28AM 38.1383 -108.3503 72° East 514 592 33,000  Level Denver Center
02:29AM 38.1792 -108.1850 73° East 514 592 33,000  Level Denver Center
02:30AM 38.2281 -107.9908 72° East 516 594 33,000  Level Denver Center
02:31AM 38.2689 -107.8264 72° East 514 592 33,000  Level Denver Center
02:32AM 38.3092 -107.6597 73° East 514 592 33,000  Level Denver Center
02:33AM 38.3497 -107.4942 73° East 514 592 33,000  Level Denver Center
02:34AM 38.3964 -107.3011 73° East 513 590 33,000  Level Denver Center
02:35AM 38.4328 -107.1481 73° East 512 589 33,000  Level Denver Center
02:36AM 38.4747 -106.9733 73° East 514 592 33,000  Level Denver Center
02:37AM 38.5158 -106.7997 73° East 514 592 33,000  Level Denver Center
02:38AM 38.5567 -106.6236 73° East 517 595 33,000  Level Denver Center
02:39AM 38.5975 -106.4492 73° East 516 594 33,000  Level Denver Center
02:40AM 38.6378 -106.2753 73° East 513 590 33,000  Level Denver Center
02:41AM 38.6822 -106.0850 73° East 513 590 33,000  Level Denver Center
02:42AM 38.7219 -105.9097 74° East 514 592 33,000  Level Denver Center
02:43AM 38.7614 -105.7353 74° East 513 590 33,000  Level Denver Center
02:44AM 38.8008 -105.5583 74° East 517 595 33,000  Level Denver Center
02:45AM 38.8400 -105.3803 74° East 520 598 33,000  Level Denver Center
02:46AM 38.8786 -105.2047 74° East 518 596 33,000  Level Denver Center
02:47AM 38.9172 -105.0272 74° East 519 597 33,000  Level Denver Center
02:48AM 38.9561 -104.8517 74° East 518 596 33,000  Level Denver Center
02:49AM 38.9944 -104.6758 74° East 516 594 33,000  Level Denver Center
02:50AM 39.0392 -104.4647 75° East 516 594 33,000  Level Denver Center
02:51AM 39.0764 -104.2889 75° East 514 592 33,000  Level Denver Center
02:52AM 39.1142 -104.1081 75° East 523 602 33,000  Level Denver Center
02:53AM 39.1525 -103.9306 74° East 521 600 33,000  Level Denver Center
02:54AM 39.1892 -103.7506 75° East 523 602 33,000  Level Denver Center
02:55AM 39.2269 -103.5703 75° East 525 604 33,000  Level Denver Center
02:56AM 39.2628 -103.3883 76° East 527 606 33,000  Level Denver Center
02:57AM 39.3003 -103.2047 75° East 529 609 33,000  Level Denver Center
02:58AM 39.3369 -103.0217 75° East 530 610 33,000  Level Denver Center
02:59AM 39.3731 -102.8381 76° East 530 610 33,000  Level Denver Center
03:00AM 39.4092 -102.6528 76° East 531 611 33,000  Level Denver Center
03:01AM 39.4450 -102.4683 76° East 530 610 33,000  Level Denver Center
03:02AM 39.4819 -102.2783 76° East 531 611 33,000  Level Denver Center
03:03AM 39.5164 -102.0994 76° East 534 615 33,000  Level Denver Center
03:04AM 39.5542 -101.8906 77° East 536 617 33,000  Level Denver Center
03:05AM 39.5878 -101.7125 76° East 533 613 33,000  Level Denver Center
03:06AM 39.6214 -101.5314 76° East 540 621 33,000  Level Denver Center
03:07AM 39.6544 -101.3531 76° East 535 616 33,000  Level Denver Center
03:08AM 39.6919 -101.1411 77° East 540 621 33,000  Level Denver Center
03:09AM 39.7247 -100.9622 77° East 537 618 33,000  Level Denver Center
03:10AM 39.7567 -100.7828 77° East 535 616 33,000  Level Denver Center
03:11AM 39.7936 -100.5728 77° East 537 618 33,000  Level Denver Center
03:12AM 39.8253 -100.3953 77° East 532 612 33,000  Level Denver Center
03:13AM 39.8542 -100.2256 77° East 533 613 33,000  Level Denver Center
03:14AM 39.8858 -100.0361 78° East 535 616 33,000  Level Denver Center
03:15AM 39.9233 -99.8106 78° East 533 613 33,000  Level Denver Center
03:16AM 39.9558 -99.6217 77° East 535 616 33,000  Level Denver Center
03:17AM 39.9875 -99.4325 78° East 536 617 33,000  Level Denver Center
03:18AM 40.0178 -99.2447 78° East 532 612 33,000  Level Denver Center
03:19AM 40.0486 -99.0553 78° East 534 615 33,000  Level Denver Center
03:20AM 40.0606 -98.9808 78° East 535 616 33,000  Level Minneapolis Center
03:21AM 40.0903 -98.7914 78° East 535 616 33,000  Level Minneapolis Center
03:22AM 40.1208 -98.6008 78° East 537 618 33,000  Level Minneapolis Center
03:23AM 40.1492 -98.4103 79° East 538 619 33,000  Level Minneapolis Center
03:24AM 40.1853 -98.1814 78° East 538 619 33,000  Level Minneapolis Center
03:25AM 40.2131 -97.9911 79° East 536 617 33,000  Level Minneapolis Center
03:26AM 40.2419 -97.8003 79° East 536 617 33,000  Level Minneapolis Center
03:27AM 40.2706 -97.6086 79° East 538 619 33,000  Level Minneapolis Center
03:28AM 40.2986 -97.4156 79° East 541 623 33,000  Level Minneapolis Center
03:29AM 40.3258 -97.2294 79° East 542 624 33,000  Level Minneapolis Center
03:30AM 40.3528 -97.0364 80° East 542 624 33,000  Level Minneapolis Center
03:31AM 40.3803 -96.8464 79° East 536 617 33,000  Level Minneapolis Center
03:32AM 40.4064 -96.6550 80° East 536 617 33,000  Level Minneapolis Center
03:33AM 40.4328 -96.4650 80° East 533 613 33,000  Level Minneapolis Center
03:34AM 40.4578 -96.2758 80° East 531 611 33,000  Level Minneapolis Center
03:35AM 40.4831 -96.0883 80° East 527 606 33,000  Level Minneapolis Center
03:36AM 40.5083 -95.8972 80° East 531 611 33,000  Level Minneapolis Center
03:37AM 40.5344 -95.7061 80° East 534 615 33,000  Level Minneapolis Center
03:38AM 40.5589 -95.5175 80° East 530 610 33,000  Level Minneapolis Center
03:39AM 40.5831 -95.3289 80° East 527 606 33,000  Level Minneapolis Center
03:40AM 40.6067 -95.1397 81° East 527 606 33,000  Level Minneapolis Center
03:41AM 40.6303 -94.9494 81° East 529 609 33,000  Level Minneapolis Center
03:42AM 40.6539 -94.7589 81° East 529 609 33,000  Level Minneapolis Center
03:43AM 40.6783 -94.5536 81° East 525 604 33,000  Level Minneapolis Center
03:44AM 40.7003 -94.3694 81° East 519 597 33,000  Level Minneapolis Center
03:45AM 40.7206 -94.1864 82° East 512 589 33,000  Level Minneapolis Center
03:46AM 40.7419 -94.0036 81° East 509 586 33,000  Level Minneapolis Center
03:47AM 40.7625 -93.8217 81° East 508 585 33,000  Level Minneapolis Center
03:48AM 40.7825 -93.6392 82° East 506 582 33,000  Level Minneapolis Center
03:49AM 40.8039 -93.4544 81° East 509 586 33,000  Level Minneapolis Center
03:50AM 40.8156 -93.3425 82° East 508 585 33,000  Level Chicago Center
03:51AM 40.8353 -93.1611 82° East 503 579 33,000  Level Chicago Center
03:52AM 40.8547 -92.9775 82° East 506 582 33,000  Level Chicago Center
03:53AM 40.8736 -92.7953 82° East 503 579 33,000  Level Chicago Center
03:54AM 40.8922 -92.6150 82° East 498 573 33,000  Level Chicago Center
03:55AM 40.9111 -92.4369 82° East 493 567 33,000  Level Chicago Center
03:56AM 40.9289 -92.2581 82° East 493 567 33,000  Level Chicago Center
03:57AM 40.9461 -92.0789 83° East 494 568 33,000  Level Chicago Center
03:58AM 40.9667 -91.8653 83° East 492 566 33,000  Level Chicago Center
03:59AM 40.9844 -91.6869 82° East 491 565 33,000  Level Chicago Center
04:00AM 40.9992 -91.5158 83° East 491 565 33,000  Level Chicago Center
04:01AM 41.0158 -91.3347 83° East 494 568 33,000  Level Chicago Center
04:02AM 41.0322 -91.1542 83° East 493 567 33,000  Level Chicago Center
04:03AM 41.0475 -90.9750 83° East 490 564 33,000 -300 Level Chicago Center
04:04AM 41.0631 -90.7967 83° East 487 560 32,400 -1,260 Descending Chicago Center
04:05AM 41.0786 -90.6158 83° East 490 564 30,500 -1,920 Descending Chicago Center
04:06AM 41.0939 -90.4353 84° East 492 566 28,600 -1,920 Descending Chicago Center
04:07AM 41.1089 -90.2553 84° East 490 564 26,700 -1,860 Descending Chicago Center
04:08AM 41.1225 -90.0781 84° East 483 556 24,900 -1,800 Descending Chicago Center
04:09AM 41.1372 -89.9003 84° East 482 555 23,200 -1,740 Descending Chicago Center
04:10AM 41.1514 -89.7244 84° East 476 548 21,500 -1,680 Descending Chicago Center
04:11AM 41.1747 -89.5536 80° East 481 554 19,900 -1,680 Descending Chicago Center
04:12AM 41.2372 -89.3997 62° Northeast 477 549 18,200 -1,740 Descending Chicago Center
04:13AM 41.3000 -89.2453 62° Northeast 475 547 16,500 -1,620 Descending Chicago Center
04:14AM 41.3492 -89.1189 63° Northeast 456 525 15,000 -1,620 Descending Chicago Center
04:15AM 41.4047 -88.9800 62° Northeast 431 496 13,300 -1,740 Descending Chicago Center
04:16AM 41.4569 -88.8475 62° Northeast 410 472 11,600 -1,200 Descending Chicago Center
04:17AM 41.5069 -88.7197 62° Northeast 392 451 11,000 -300 Descending Chicago Center
04:18AM 41.5558 -88.5956 62° Northeast 381 438 11,000  Level Chicago Center
04:19AM 41.6200 -88.4833 53° Northeast 387 445 11,000  Level Chicago Center
04:20AM 41.6906 -88.3789 48° Northeast 380 437 11,000 -360 Level Chicago Center
04:21AM 41.7658 -88.3153 32° Northeast 324 373 10,300 -1,260 Descending Chicago Center
04:22AM 41.8444 -88.2725 22° Northeast 315 362 8,500 -1,860 Descending Chicago Center
04:23AM 41.9283 -88.2508 11° North 308 354 6,600 -1,860 Descending Chicago Center
04:24AM 42.0139 -88.2247 13° North 313 360 4,800 -1,320 Descending Chicago Center
04:25AM 42.0894 -88.1822 23° Northeast 303 349 4,000 -360 Descending Chicago Center
04:26AM 42.1000 -88.0833 82° East 204 235 4,100 -480 Climbing Chicago TRACON
04:27AM 42.0833 -88.0167 109° East 192 221 3,000 -1,020 Descending Chicago TRACON
04:28AM 42.0500 -87.9667 132° Southeast 151 174 2,100 -780 Descending Chicago TRACON
04:29AM 42.0333 -87.9500 143° Southeast 108 124 1,500 -600 Descending Chicago TRACON
04:30AM 42.0000 -87.9167 143° Southeast 103 119 1,000 -540 Descending Chicago TRACON
04:32AM 41.9817 -87.9067 180° South  Level Estimated